sensor_id;sensor_type;location;lat;lon;timestamp;temperature;humidity
65766;SHT31;52915;53.718;19.946;2023-01-28T00:01:26;-0.04;78.64
65766;SHT31;52915;53.718;19.946;2023-01-28T00:06:32;-0.10;78.61
65766;SHT31;52915;53.718;19.946;2023-01-28T00:11:36;-0.15;78.65
65766;SHT31;52915;53.718;19.946;2023-01-28T00:16:43;-0.18;78.90
65766;SHT31;52915;53.718;19.946;2023-01-28T00:21:47;-0.19;78.88
65766;SHT31;52915;53.718;19.946;2023-01-28T00:26:51;-0.14;78.79
65766;SHT31;52915;53.718;19.946;2023-01-28T00:31:55;-0.05;78.74
65766;SHT31;52915;53.718;19.946;2023-01-28T00:36:59;-0.02;78.50
65766;SHT31;52915;53.718;19.946;2023-01-28T00:42:03;-0.06;78.59
65766;SHT31;52915;53.718;19.946;2023-01-28T00:47:07;-0.10;78.69
65766;SHT31;52915;53.718;19.946;2023-01-28T00:52:11;-0.15;78.74
65766;SHT31;52915;53.718;19.946;2023-01-28T00:57:16;-0.18;78.81
65766;SHT31;52915;53.718;19.946;2023-01-28T01:02:21;-0.21;78.86
65766;SHT31;52915;53.718;19.946;2023-01-28T01:07:27;-0.24;79.06
65766;SHT31;52915;53.718;19.946;2023-01-28T01:12:46;-0.19;79.11
65766;SHT31;52915;53.718;19.946;2023-01-28T01:17:53;-0.12;78.96
65766;SHT31;52915;53.718;19.946;2023-01-28T01:22:57;-0.15;78.93
65766;SHT31;52915;53.718;19.946;2023-01-28T01:28:03;-0.21;79.15
65766;SHT31;52915;53.718;19.946;2023-01-28T01:33:07;-0.27;79.18
65766;SHT31;52915;53.718;19.946;2023-01-28T01:38:11;-0.31;79.22
65766;SHT31;52915;53.718;19.946;2023-01-28T01:43:15;-0.32;79.25
65766;SHT31;52915;53.718;19.946;2023-01-28T01:48:23;-0.36;79.29
65766;SHT31;52915;53.718;19.946;2023-01-28T01:53:36;-0.39;79.33
65766;SHT31;52915;53.718;19.946;2023-01-28T01:58:46;-0.30;79.29
65766;SHT31;52915;53.718;19.946;2023-01-28T02:04:00;-0.19;79.11
65766;SHT31;52915;53.718;19.946;2023-01-28T02:09:24;-0.10;79.04
65766;SHT31;52915;53.718;19.946;2023-01-28T02:14:34;-0.15;78.96
65766;SHT31;52915;53.718;19.946;2023-01-28T02:30:47;-0.30;79.11
65766;SHT31;52915;53.718;19.946;2023-01-28T02:36:35;-0.42;79.32
65766;SHT31;52915;53.718;19.946;2023-01-28T02:41:48;-0.41;79.40
65766;SHT31;52915;53.718;19.946;2023-01-28T02:47:11;-0.39;79.25
65766;SHT31;52915;53.718;19.946;2023-01-28T02:52:43;-0.41;79.29
65766;SHT31;52915;53.718;19.946;2023-01-28T03:08:58;-0.27;79.22
65766;SHT31;52915;53.718;19.946;2023-01-28T03:14:26;-0.32;79.34
65766;SHT31;52915;53.718;19.946;2023-01-28T03:19:53;-0.35;79.39
65766;SHT31;52915;53.718;19.946;2023-01-28T03:25:17;-0.41;79.44
65766;SHT31;52915;53.718;19.946;2023-01-28T03:30:47;-0.45;79.61
65766;SHT31;52915;53.718;19.946;2023-01-28T03:36:19;-0.50;79.70
65766;SHT31;52915;53.718;19.946;2023-01-28T03:41:42;-0.44;79.70
65766;SHT31;52915;53.718;19.946;2023-01-28T03:47:00;-0.33;79.44
65766;SHT31;52915;53.718;19.946;2023-01-28T03:52:03;-0.29;79.21
65766;SHT31;52915;53.718;19.946;2023-01-28T03:57:07;-0.34;79.32
65766;SHT31;52915;53.718;19.946;2023-01-28T04:02:11;-0.37;79.60
65766;SHT31;52915;53.718;19.946;2023-01-28T04:07:16;-0.41;79.65
65766;SHT31;52915;53.718;19.946;2023-01-28T04:12:21;-0.41;79.70
65766;SHT31;52915;53.718;19.946;2023-01-28T04:17:26;-0.47;79.67
65766;SHT31;52915;53.718;19.946;2023-01-28T04:22:30;-0.48;79.74
65766;SHT31;52915;53.718;19.946;2023-01-28T04:27:34;-0.49;79.84
65766;SHT31;52915;53.718;19.946;2023-01-28T04:32:38;-0.50;79.90
65766;SHT31;52915;53.718;19.946;2023-01-28T04:37:43;-0.40;79.67
65766;SHT31;52915;53.718;19.946;2023-01-28T04:42:52;-0.29;79.38
65766;SHT31;52915;53.718;19.946;2023-01-28T04:47:57;-0.25;79.48
65766;SHT31;52915;53.718;19.946;2023-01-28T04:53:01;-0.27;79.43
65766;SHT31;52915;53.718;19.946;2023-01-28T04:58:05;-0.31;79.42
65766;SHT31;52915;53.718;19.946;2023-01-28T05:03:09;-0.36;79.50
65766;SHT31;52915;53.718;19.946;2023-01-28T05:08:14;-0.42;79.61
65766;SHT31;52915;53.718;19.946;2023-01-28T05:13:19;-0.50;79.82
65766;SHT31;52915;53.718;19.946;2023-01-28T05:18:23;-0.53;79.92
65766;SHT31;52915;53.718;19.946;2023-01-28T05:23:27;-0.51;79.77
65766;SHT31;52915;53.718;19.946;2023-01-28T05:28:31;-0.47;79.49
65766;SHT31;52915;53.718;19.946;2023-01-28T05:33:35;-0.39;79.31
65766;SHT31;52915;53.718;19.946;2023-01-28T05:38:39;-0.41;79.39
65766;SHT31;52915;53.718;19.946;2023-01-28T05:43:43;-0.44;79.49
65766;SHT31;52915;53.718;19.946;2023-01-28T05:48:47;-0.48;79.74
65766;SHT31;52915;53.718;19.946;2023-01-28T05:53:52;-0.53;79.91
65766;SHT31;52915;53.718;19.946;2023-01-28T05:58:56;-0.58;80.04
65766;SHT31;52915;53.718;19.946;2023-01-28T06:04:01;-0.61;80.14
65766;SHT31;52915;53.718;19.946;2023-01-28T06:09:08;-0.64;80.06
65766;SHT31;52915;53.718;19.946;2023-01-28T06:14:12;-0.65;79.99
65766;SHT31;52915;53.718;19.946;2023-01-28T06:19:16;-0.59;79.96
65766;SHT31;52915;53.718;19.946;2023-01-28T06:24:20;-0.50;79.79
65766;SHT31;52915;53.718;19.946;2023-01-28T06:29:25;-0.50;79.68
65766;SHT31;52915;53.718;19.946;2023-01-28T06:34:29;-0.48;79.56
65766;SHT31;52915;53.718;19.946;2023-01-28T06:39:33;-0.53;79.47
65766;SHT31;52915;53.718;19.946;2023-01-28T06:44:37;-0.59;79.49
65766;SHT31;52915;53.718;19.946;2023-01-28T06:49:41;-0.59;79.61
65766;SHT31;52915;53.718;19.946;2023-01-28T06:54:45;-0.62;79.74
65766;SHT31;52915;53.718;19.946;2023-01-28T07:05:13;-0.62;79.65
65766;SHT31;52915;53.718;19.946;2023-01-28T07:10:17;-0.56;79.36
65766;SHT31;52915;53.718;19.946;2023-01-28T07:15:23;-0.44;79.25
65766;SHT31;52915;53.718;19.946;2023-01-28T07:20:27;-0.37;79.00
65766;SHT31;52915;53.718;19.946;2023-01-28T07:25:32;-0.31;78.99
65766;SHT31;52915;53.718;19.946;2023-01-28T07:30:36;-0.31;78.86
65766;SHT31;52915;53.718;19.946;2023-01-28T07:35:40;-0.27;79.04
65766;SHT31;52915;53.718;19.946;2023-01-28T07:40:45;-0.23;79.03
65766;SHT31;52915;53.718;19.946;2023-01-28T07:45:49;-0.21;78.75
65766;SHT31;52915;53.718;19.946;2023-01-28T07:50:56;-0.15;78.49
65766;SHT31;52915;53.718;19.946;2023-01-28T07:56:02;-0.03;78.29
65766;SHT31;52915;53.718;19.946;2023-01-28T08:01:10;0.07;78.14
65766;SHT31;52915;53.718;19.946;2023-01-28T08:06:15;0.21;78.00
65766;SHT31;52915;53.718;19.946;2023-01-28T08:11:19;0.26;77.68
65766;SHT31;52915;53.718;19.946;2023-01-28T08:16:27;0.33;77.54
65766;SHT31;52915;53.718;19.946;2023-01-28T08:21:32;0.37;77.39
65766;SHT31;52915;53.718;19.946;2023-01-28T08:26:38;0.38;77.26
65766;SHT31;52915;53.718;19.946;2023-01-28T08:56:01;0.77;75.56
65766;SHT31;52915;53.718;19.946;2023-01-28T09:08:16;0.96;75.29
65766;SHT31;52915;53.718;19.946;2023-01-28T09:26:29;1.04;73.89
65766;SHT31;52915;53.718;19.946;2023-01-28T09:38:57;1.23;73.38
65766;SHT31;52915;53.718;19.946;2023-01-28T09:56:14;1.69;72.92
65766;SHT31;52915;53.718;19.946;2023-01-28T10:25:45;1.93;71.85
65766;SHT31;52915;53.718;19.946;2023-01-28T10:30:51;2.07;71.90
65766;SHT31;52915;53.718;19.946;2023-01-28T11:05:29;2.46;71.92
65766;SHT31;52915;53.718;19.946;2023-01-28T11:16:30;2.59;71.74
65766;SHT31;52915;53.718;19.946;2023-01-28T11:21:36;2.63;71.24
65766;SHT31;52915;53.718;19.946;2023-01-28T11:26:44;2.55;71.04
65766;SHT31;52915;53.718;19.946;2023-01-28T11:56:12;2.57;70.75
65766;SHT31;52915;53.718;19.946;2023-01-28T12:02:23;2.55;70.64
65766;SHT31;52915;53.718;19.946;2023-01-28T12:08:15;2.55;70.71
65766;SHT31;52915;53.718;19.946;2023-01-28T12:19:58;2.54;69.48
65766;SHT31;52915;53.718;19.946;2023-01-28T12:37:43;2.38;69.28
65766;SHT31;52915;53.718;19.946;2023-01-28T12:48:49;2.37;68.85
65766;SHT31;52915;53.718;19.946;2023-01-28T13:05:32;2.09;68.81
65766;SHT31;52915;53.718;19.946;2023-01-28T13:10:46;2.03;68.72
65766;SHT31;52915;53.718;19.946;2023-01-28T13:15:51;2.00;68.44
65766;SHT31;52915;53.718;19.946;2023-01-28T13:20:57;1.89;68.50
65766;SHT31;52915;53.718;19.946;2023-01-28T13:31:22;1.64;68.68
65766;SHT31;52915;53.718;19.946;2023-01-28T14:16:57;1.13;69.01
65766;SHT31;52915;53.718;19.946;2023-01-28T14:27:39;0.99;68.96
65766;SHT31;52915;53.718;19.946;2023-01-28T14:32:52;0.93;69.11
65766;SHT31;52915;53.718;19.946;2023-01-28T15:15:56;0.57;69.24
65766;SHT31;52915;53.718;19.946;2023-01-28T15:21:03;0.59;68.90
65766;SHT31;52915;53.718;19.946;2023-01-28T15:45:57;0.46;66.56
65766;SHT31;52915;53.718;19.946;2023-01-28T15:51:25;0.39;66.53
65766;SHT31;52915;53.718;19.946;2023-01-28T16:09:34;0.23;67.71
65766;SHT31;52915;53.718;19.946;2023-01-28T17:08:08;0.06;70.12
65766;SHT31;52915;53.718;19.946;2023-01-28T18:02:50;-0.38;70.96
65766;SHT31;52915;53.718;19.946;2023-01-28T18:07:54;-0.27;71.11
65766;SHT31;52915;53.718;19.946;2023-01-28T18:24:49;-0.13;71.29
65766;SHT31;52915;53.718;19.946;2023-01-28T18:29:59;-0.15;71.46
65766;SHT31;52915;53.718;19.946;2023-01-28T19:02:05;-0.03;72.42
65766;SHT31;52915;53.718;19.946;2023-01-28T19:13:11;-0.01;72.54
65766;SHT31;52915;53.718;19.946;2023-01-28T19:18:15;-0.05;72.81
65766;SHT31;52915;53.718;19.946;2023-01-28T19:49:48;-0.22;73.75
65766;SHT31;52915;53.718;19.946;2023-01-28T20:00:54;-0.18;73.93
65766;SHT31;52915;53.718;19.946;2023-01-28T20:06:12;-0.18;73.82
65766;SHT31;52915;53.718;19.946;2023-01-28T20:24:24;-0.18;73.93
65766;SHT31;52915;53.718;19.946;2023-01-28T21:05:09;-0.27;74.10
65766;SHT31;52915;53.718;19.946;2023-01-28T21:15:51;-0.35;74.14
65766;SHT31;52915;53.718;19.946;2023-01-28T21:41:55;-0.28;74.69
65766;SHT31;52915;53.718;19.946;2023-01-28T21:54:27;-0.27;74.76
65766;SHT31;52915;53.718;19.946;2023-01-28T22:07:05;-0.28;74.94
65766;SHT31;52915;53.718;19.946;2023-01-28T22:12:12;-0.23;75.15
65766;SHT31;52915;53.718;19.946;2023-01-28T22:17:17;-0.16;75.08
65766;SHT31;52915;53.718;19.946;2023-01-28T22:28:47;-0.15;75.26
65766;SHT31;52915;53.718;19.946;2023-01-28T22:33:51;-0.12;75.25
65766;SHT31;52915;53.718;19.946;2023-01-28T22:38:55;-0.17;75.39
65766;SHT31;52915;53.718;19.946;2023-01-28T22:49:52;-0.23;75.83
65766;SHT31;52915;53.718;19.946;2023-01-28T22:54:56;-0.22;76.04
65766;SHT31;52915;53.718;19.946;2023-01-28T23:11:35;-0.32;76.75
65766;SHT31;52915;53.718;19.946;2023-01-28T23:22:54;-0.14;76.81
65766;SHT31;52915;53.718;19.946;2023-01-28T23:28:18;-0.15;76.89
65766;SHT31;52915;53.718;19.946;2023-01-28T23:33:21;-0.08;76.91
65766;SHT31;52915;53.718;19.946;2023-01-28T23:38:26;-0.07;76.96
65766;SHT31;52915;53.718;19.946;2023-01-28T23:43:30;0.03;76.88
